Список аэропортов
Фактическая погода:

15:00
Температура: -12°C
Ветер: юго-восточный 3 м/с
Видимость: 10 км
Давление: 763 мм рт. ст.
1016.8 гПа (-1.8)

Облачность: 7-8/0
перистые
выше 2,5 км
Время (МСК)Темп. СВетерВлажностьДавлениеОблачностьОсадки
21:00+18ЮВ, 1 м/с75%1018 гПаясно
22:00+16Ю, 2 м/с84%1018 гПаясно
23:00+16Ю, 2 м/с83%1018 гПаясно
16 августа
00:00+15ЮВ, 1 м/с88%1018 гПаясно
01:00+14Ю, 1 м/с89%1018 гПаясно
02:00+14Ю, 1 м/с90%1018 гПаясно
03:00+13Ю, 2 м/с88%1018 гПаясно
04:00+14Ю, 2 м/с81%1017 гПаясно
05:00+14Ю, 3 м/с74%1017 гПаясно
06:00+16ЮВ, 3 м/с69%1017 гПаясно
07:00+19Ю, 3 м/с58%1016 гПаясно
08:00+22Ю, 4 м/с49%1016 гПамалооблачно
09:00+25Ю, 5 м/с43%1016 гПаясно
10:00+27Ю, 6 м/с35%1016 гПаясно
11:00+28Ю, 7 м/с32%1016 гПаясно
12:00+29Ю, 6 м/с30%1015 гПаясно
13:00+30Ю, 6 м/с29%1015 гПаясно
14:00+30Ю, 6 м/с28%1014 гПаясно
15:00+30Ю, 6 м/с28%1014 гПаясно
16:00+30Ю, 6 м/с29%1013 гПаясно
17:00+30Ю, 5 м/с30%1013 гПаясно
18:00+28Ю, 4 м/с35%1013 гПамалооблачно
19:00+26Ю, 4 м/с41%1013 гПамалооблачно
20:00+25Ю, 3 м/с46%1013 гПаясно
21:00+23Ю, 3 м/с51%1013 гПамалооблачно
22:00+22ЮЗ, 2 м/с58%1014 гПаясно
23:00+20ЮЗ, 2 м/с64%1013 гПас прояснениями
17 августа
00:00+19ЮЗ, 2 м/с72%1013 гПас прояснениями
01:00+18ЮЗ, 1 м/с80%1013 гПас прояснениями
02:00+17ЮЗ, 1 м/с89%1013 гПаоблачно
03:00+17ЮЗ, 2 м/с92%1013 гПас прояснениями
04:00+19З, 3 м/с88%1014 гПаоблачно
05:00+19СЗ, 3 м/с93%1014 гПаоблачносл. дождь
06:00+19СЗ, 5 м/с92%1015 гПаоблачно
07:00+19СЗ, 5 м/с74%1015 гПаоблачно
08:00+20С, 5 м/с62%1016 гПаоблачно
09:00+20С, 5 м/с58%1017 гПаоблачно
10:00+21С, 5 м/с51%1017 гПаоблачно
11:00+22С, 5 м/с46%1017 гПаоблачно
12:00+23С, 5 м/с41%1017 гПаоблачно
13:00+24С, 5 м/с38%1017 гПаоблачно
14:00+24С, 5 м/с36%1017 гПаоблачно
15:00+24С, 5 м/с35%1017 гПамалооблачно
16:00+24С, 5 м/с35%1017 гПамалооблачно
17:00+24С, 5 м/с37%1017 гПамалооблачно
18:00+23С, 5 м/с39%1018 гПас прояснениями
19:00+22СЗ, 4 м/с42%1018 гПаоблачно
20:00+20СЗ, 2 м/с49%1018 гПаоблачно
21:00+18СЗ, 2 м/с58%1018 гПамалооблачно